createdAt,value
2022-10-26T00:14:06.460Z,18.00
2022-10-26T00:24:18.790Z,16.20
2022-10-26T00:34:32.365Z,19.80
2022-10-26T00:45:03.361Z,20.90
2022-10-26T00:55:43.531Z,23.00
2022-10-26T01:06:32.394Z,19.60
2022-10-26T01:17:20.350Z,20.00
2022-10-26T01:28:00.095Z,19.70
2022-10-26T01:38:54.625Z,18.50
2022-10-26T01:49:18.697Z,18.40
2022-10-26T01:59:33.450Z,21.10
2022-10-26T02:10:33.519Z,18.80
2022-10-26T02:21:02.689Z,22.00
2022-10-26T02:31:32.771Z,21.50
2022-10-26T02:42:00.746Z,22.80
2022-10-26T02:52:34.479Z,24.60
2022-10-26T03:02:43.505Z,21.20
2022-10-26T03:13:00.632Z,21.20
2022-10-26T03:23:20.430Z,24.50
2022-10-26T03:33:53.967Z,22.20
2022-10-26T03:44:16.402Z,22.70
2022-10-26T03:54:30.436Z,29.10
2022-10-26T04:04:44.894Z,25.30
2022-10-26T04:14:57.203Z,22.60
2022-10-26T04:25:21.015Z,27.40
2022-10-26T04:46:06.875Z,35.90
2022-10-26T05:06:59.868Z,37.40
2022-10-26T05:17:14.839Z,35.00
2022-10-26T05:37:53.796Z,35.50
2022-10-26T05:48:13.040Z,31.80
2022-10-26T05:58:26.212Z,26.80
2022-10-26T06:08:43.552Z,28.90
2022-10-26T06:19:02.123Z,35.80
2022-10-26T06:29:45.076Z,35.20
2022-10-26T06:39:57.027Z,27.10
2022-10-26T06:50:38.855Z,29.90
2022-10-26T07:01:07.187Z,26.00
2022-10-26T07:11:26.708Z,23.00
2022-10-26T07:21:44.714Z,21.00
2022-10-26T07:42:18.248Z,27.20
2022-10-26T07:52:50.603Z,24.80
2022-10-26T08:03:04.205Z,25.10
2022-10-26T08:13:28.269Z,30.20
2022-10-26T08:34:05.075Z,28.60
2022-10-26T08:44:39.967Z,28.90
2022-10-26T08:55:01.046Z,35.40
2022-10-26T09:05:23.483Z,24.80
2022-10-26T09:15:57.421Z,18.30
2022-10-26T09:37:51.234Z,16.90
2022-10-26T09:48:19.921Z,18.10
2022-10-26T09:58:49.629Z,20.30
2022-10-26T10:09:48.882Z,23.30
2022-10-26T10:20:42.867Z,23.50
2022-10-26T10:31:29.194Z,29.20
2022-10-26T10:41:50.326Z,26.40
2022-10-26T10:52:44.569Z,24.80
2022-10-26T11:03:19.203Z,24.30
2022-10-26T11:14:15.230Z,24.50
2022-10-26T11:25:04.259Z,23.90
2022-10-26T11:35:41.000Z,25.50
2022-10-26T11:46:21.714Z,21.00
2022-10-26T11:56:53.891Z,25.30
2022-10-26T12:07:23.929Z,26.90
2022-10-26T12:17:45.459Z,22.60
2022-10-26T12:28:09.505Z,24.40
2022-10-26T12:38:44.800Z,26.00
2022-10-26T12:49:13.728Z,21.40
2022-10-26T12:59:57.283Z,24.60
2022-10-26T13:10:33.312Z,16.60
2022-10-26T13:21:09.023Z,25.30
2022-10-26T13:42:10.987Z,28.90
2022-10-26T13:53:09.251Z,22.40
2022-10-26T14:04:10.730Z,22.70
2022-10-26T14:14:36.745Z,22.20
2022-10-26T14:24:52.235Z,22.60
2022-10-26T14:35:03.967Z,19.30
2022-10-26T14:45:53.072Z,23.00
2022-10-26T14:56:05.341Z,23.20
2022-10-26T15:06:45.825Z,24.70
2022-10-26T15:16:59.644Z,20.40
2022-10-26T15:27:12.386Z,27.90
2022-10-26T15:37:23.141Z,29.30
2022-10-26T15:47:33.625Z,32.70
2022-10-26T15:57:38.636Z,21.60
2022-10-26T16:07:52.011Z,23.50
2022-10-26T16:17:55.834Z,17.40
2022-10-26T16:28:01.338Z,21.90
2022-10-26T16:38:12.085Z,16.20
2022-10-26T16:48:19.008Z,19.70
2022-10-26T16:58:54.274Z,30.00
2022-10-26T17:09:02.243Z,28.60
2022-10-26T17:19:20.245Z,27.80
2022-10-26T17:29:27.264Z,24.30
2022-10-26T17:39:35.522Z,28.80
2022-10-26T17:49:40.097Z,29.50
2022-10-26T17:59:43.799Z,28.50
2022-10-26T18:09:47.499Z,28.00
2022-10-26T18:19:53.823Z,29.60
2022-10-26T18:29:59.804Z,33.50
2022-10-26T18:40:07.331Z,35.50
2022-10-26T18:50:23.171Z,42.00
2022-10-26T19:20:49.138Z,35.00
2022-10-26T19:30:55.819Z,39.20
2022-10-26T19:41:33.535Z,33.90
2022-10-26T19:51:44.513Z,41.40
2022-10-26T20:01:48.735Z,43.00
2022-10-26T20:11:53.916Z,39.20
2022-10-26T20:22:03.916Z,39.40
2022-10-26T20:32:16.872Z,41.10
2022-10-26T20:42:30.610Z,41.50
2022-10-26T20:53:00.120Z,41.70
2022-10-26T21:03:05.076Z,46.10
2022-10-26T21:13:15.010Z,40.00
2022-10-26T21:23:25.621Z,42.50
2022-10-26T21:33:39.978Z,41.30
2022-10-26T21:44:08.383Z,43.50
2022-10-26T21:54:18.045Z,48.60
2022-10-26T22:04:24.382Z,52.40
2022-10-26T22:14:32.208Z,47.40
2022-10-26T22:24:39.393Z,51.60
2022-10-26T22:34:47.672Z,52.10
2022-10-26T22:44:52.634Z,47.30
2022-10-26T22:54:57.769Z,72.50
2022-10-26T23:05:02.545Z,62.30
2022-10-26T23:15:10.386Z,52.90
2022-10-26T23:25:19.291Z,46.10
2022-10-26T23:35:37.161Z,44.40
2022-10-26T23:45:40.641Z,43.30
2022-10-26T23:56:16.103Z,48.30
